Time;durP1;ratioP1;P1;durP2;ratioP2;P2;SDS_P1;SDS_P2;PMS_P1;PMS_P2;Temp;Humidity;BMP_temperature;BMP_pressure;BME280_temperature;BME280_humidity;BME280_pressure;Samples;Min_cycle;Max_cycle;Signal;HPM_P1;HPM_P2
2022/08/05 00:00:06;;;;;;;3.35;3.05;;;;;;;20.83;70.75;94607.41;5032761;28;20270;-63
2022/08/05 00:02:32;;;;;;;3.53;3.20;;;;;;;20.83;70.58;94609.19;5032916;28;20178;-64
2022/08/05 00:04:57;;;;;;;3.25;2.97;;;;;;;20.80;71.92;94597.50;5032954;28;20621;-62
2022/08/05 00:07:23;;;;;;;6.75;3.20;;;;;;;20.71;71.38;94603.00;5032954;28;20213;-62
2022/08/05 00:09:48;;;;;;;3.15;2.85;;;;;;;20.64;71.57;94597.00;5015227;28;20296;-64
2022/08/05 00:12:14;;;;;;;3.40;3.10;;;;;;;20.56;72.23;94590.19;5032807;28;20245;-65
2022/08/05 00:14:40;;;;;;;3.50;3.15;;;;;;;20.47;74.06;94569.91;5032964;28;20665;-63
2022/08/05 00:17:05;;;;;;;4.22;3.05;;;;;;;20.54;73.73;94573.31;5032988;28;20747;-63
2022/08/05 00:19:31;;;;;;;6.25;3.05;;;;;;;20.51;74.46;94560.78;5032599;28;20193;-64
2022/08/05 00:21:56;;;;;;;3.47;3.17;;;;;;;20.44;74.48;94560.75;5014976;28;20214;-63
2022/08/05 00:24:22;;;;;;;3.50;3.20;;;;;;;20.46;74.93;94566.50;5032485;28;20264;-63
2022/08/05 00:26:47;;;;;;;3.10;2.80;;;;;;;20.49;74.31;94568.72;5032458;28;20576;-63
2022/08/05 00:29:12;;;;;;;4.20;3.10;;;;;;;20.47;73.73;94577.66;5032596;28;20197;-63
2022/08/05 00:31:38;;;;;;;3.40;3.10;;;;;;;20.49;73.82;94580.84;5032567;28;20225;-65
2022/08/05 00:34:04;;;;;;;4.47;3.45;;;;;;;20.37;74.78;94569.47;5032497;28;20660;-60
2022/08/05 00:36:30;;;;;;;5.30;3.03;;;;;;;20.41;75.22;94566.31;5032354;28;20220;-64
2022/08/05 00:38:55;;;;;;;4.03;3.60;;;;;;;20.54;75.39;94557.81;5032295;28;20198;-64
2022/08/05 00:41:32;;;;;;;7.88;3.65;;;;;;;20.70;75.10;94568.63;5032103;28;20241;-63
2022/08/05 00:43:57;;;;;;;3.05;2.85;;;;;;;20.66;75.59;94559.66;5032621;28;20675;-61
2022/08/05 00:46:23;;;;;;;3.97;3.58;;;;;;;20.61;77.50;94554.28;5032784;28;20677;-65
2022/08/05 00:48:50;;;;;;;4.80;3.13;;;;;;;20.81;76.22;94572.41;5014411;28;20581;-62
2022/08/05 00:51:17;;;;;;;3.75;3.45;;;;;;;20.78;75.98;94573.63;5014342;28;20335;-60
2022/08/05 00:53:43;;;;;;;3.88;3.58;;;;;;;20.72;76.63;94571.00;5032262;28;20197;-61
2022/08/05 00:56:08;;;;;;;4.45;3.22;;;;;;;20.68;77.35;94562.06;5032137;28;20644;-63
2022/08/05 00:58:34;;;;;;;5.05;3.08;;;;;;;20.59;77.29;94568.38;5032281;28;20212;-64
2022/08/05 01:01:00;;;;;;;3.75;3.45;;;;;;;20.48;77.66;94566.34;5032001;28;20206;-62
2022/08/05 01:03:25;;;;;;;3.47;3.17;;;;;;;20.42;76.19;94587.78;5014600;28;20273;-64
2022/08/05 01:05:52;;;;;;;5.07;3.20;;;;;;;20.39;76.02;94590.72;5032264;28;20305;-63
2022/08/05 01:08:18;;;;;;;6.50;3.58;;;;;;;20.34;74.98;94593.09;5032062;28;20198;-61
2022/08/05 01:10:51;;;;;;;8.20;3.35;;;;;;;20.21;75.19;94595.59;5032063;28;20284;-61
2022/08/05 01:13:29;;;;;;;4.13;2.80;;;;;;;20.10;75.49;94582.19;5031862;28;20240;-61
2022/08/05 01:15:58;;;;;;;5.82;3.42;;;;;;;20.00;75.73;94584.31;5032017;28;20738;-63
2022/08/05 01:18:30;;;;;;;5.80;3.38;;;;;;;19.71;76.96;94574.19;5014078;28;20292;-63
2022/08/05 01:21:32;;;;;;;3.47;3.17;;;;;;;19.57;78.25;94556.22;5031930;28;20214;-63
2022/08/05 01:24:07;;;;;;;3.33;3.03;;;;;;;19.37;80.16;94553.50;5014047;28;20193;-63
2022/08/05 01:26:37;;;;;;;4.97;3.50;;;;;;;19.19;81.62;94563.38;5031895;28;20232;-62
2022/08/05 01:29:11;;;;;;;4.07;3.67;;;;;;;19.17;81.87;94562.75;5031833;28;20187;-62
2022/08/05 01:31:51;;;;;;;4.50;3.60;;;;;;;19.11;82.30;94577.19;5031828;28;20218;-66
2022/08/05 01:34:31;;;;;;;4.10;2.97;;;;;;;18.99;83.49;94568.34;5013826;28;20562;-61
2022/08/05 01:37:18;;;;;;;4.20;3.70;;;;;;;18.90;84.56;94571.22;5031215;28;20206;-65
2022/08/05 01:39:47;;;;;;;4.20;3.80;;;;;;;18.83;84.66;94575.50;5031513;28;20269;-64
2022/08/05 01:42:15;;;;;;;3.72;3.35;;;;;;;18.87;85.02;94576.72;5031331;28;20202;-64
2022/08/05 01:44:43;;;;;;;5.07;3.45;;;;;;;18.90;85.02;94584.91;5031467;28;20194;-64
2022/08/05 01:47:10;;;;;;;3.75;3.45;;;;;;;18.91;85.62;94581.34;5013292;28;20687;-65
2022/08/05 01:49:39;;;;;;;4.72;3.67;;;;;;;19.01;84.73;94591.34;5031245;28;20190;-62
2022/08/05 01:52:05;;;;;;;3.50;3.20;;;;;;;18.95;84.92;94582.59;5031559;28;20202;-61
2022/08/05 01:54:40;;;;;;;6.80;3.70;;;;;;;18.89;85.82;94579.94;5031058;28;20194;-63
2022/08/05 01:57:08;;;;;;;3.80;3.42;;;;;;;18.90;86.00;94587.50;5031343;28;20214;-63
2022/08/05 01:59:35;;;;;;;5.22;3.53;;;;;;;18.92;85.89;94582.97;5031104;28;20200;-62
2022/08/05 02:02:01;;;;;;;5.35;3.75;;;;;;;18.93;85.75;94588.88;5031082;28;20236;-64
2022/08/05 02:04:32;;;;;;;3.35;3.05;;;;;;;18.87;86.50;94579.31;5031046;28;20567;-65
2022/08/05 02:06:58;;;;;;;5.00;3.65;;;;;;;18.95;85.76;94592.88;5030945;28;20783;-65
2022/08/05 02:09:24;;;;;;;7.68;3.80;;;;;;;18.94;86.80;94585.34;5013192;28;20284;-62
2022/08/05 02:12:00;;;;;;;4.15;3.75;;;;;;;18.94;85.83;94593.88;5031165;28;20290;-61
2022/08/05 02:14:31;;;;;;;4.10;3.70;;;;;;;19.00;85.71;94602.66;5030926;28;20181;-61
2022/08/05 02:17:04;;;;;;;3.78;3.17;;;;;;;18.94;85.36;94608.53;5031405;28;20217;-60
2022/08/05 02:19:33;;;;;;;4.40;3.47;;;;;;;18.73;86.58;94593.81;5031083;28;20199;-63
2022/08/05 02:22:12;;;;;;;4.22;3.83;;;;;;;18.68;87.26;94574.75;5031148;28;20234;-62
2022/08/05 02:24:40;;;;;;;5.10;3.95;;;;;;;18.80;86.91;94589.56;5031028;28;20186;-66
2022/08/05 02:27:09;;;;;;;4.22;3.65;;;;;;;18.78;87.34;94576.06;5030688;28;20198;-62
2022/08/05 02:29:35;;;;;;;5.85;4.03;;;;;;;18.87;86.57;94594.75;5030693;28;20252;-64
2022/08/05 02:32:03;;;;;;;3.90;3.40;;;;;;;18.74;86.84;94585.13;5030573;28;20210;-61
2022/08/05 02:34:31;;;;;;;4.85;3.95;;;;;;;18.79;86.70;94587.16;5030496;28;20263;-64
2022/08/05 02:37:02;;;;;;;5.38;3.97;;;;;;;18.74;86.94;94590.28;5030982;28;20210;-63
2022/08/05 02:39:33;;;;;;;7.97;4.13;;;;;;;18.80;86.91;94589.56;5030800;28;20186;-65
2022/08/05 02:42:00;;;;;;;5.85;3.45;;;;;;;18.83;87.54;94580.66;5030994;28;20241;-62
2022/08/05 02:44:27;;;;;;;4.50;4.07;;;;;;;18.82;86.63;94594.53;5030653;28;20613;-65
2022/08/05 02:46:55;;;;;;;4.45;4.05;;;;;;;18.79;87.09;94587.16;5030661;28;20230;-62
2022/08/05 02:49:22;;;;;;;4.30;3.90;;;;;;;18.82;86.56;94599.69;5015962;28;20633;-62
2022/08/05 02:51:48;;;;;;;4.60;3.70;;;;;;;18.90;85.87;94605.53;5033846;28;20303;-63
2022/08/05 02:54:14;;;;;;;4.20;3.65;;;;;;;18.96;84.99;94614.31;5033947;28;20193;-62
2022/08/05 02:56:42;;;;;;;4.07;3.67;;;;;;;19.01;85.82;94609.38;5016309;28;20325;-60
2022/08/05 02:59:11;;;;;;;7.38;3.70;;;;;;;19.03;83.19;94646.09;5033873;28;20667;-65
2022/08/05 03:01:41;;;;;;;6.38;3.50;;;;;;;19.09;82.46;94655.66;5034061;28;20230;-64
2022/08/05 03:04:11;;;;;;;3.83;3.53;;;;;;;19.08;82.56;94648.94;5033832;28;20202;-66
2022/08/05 03:06:38;;;;;;;3.97;3.35;;;;;;;19.09;81.45;94665.97;5033761;28;20210;-63
2022/08/05 03:09:04;;;;;;;3.80;3.50;;;;;;;19.01;81.96;94660.94;5033995;28;20208;-63
2022/08/05 03:11:30;;;;;;;4.75;3.95;;;;;;;18.96;81.96;94660.69;5033710;28;20242;-63
2022/08/05 03:13:55;;;;;;;3.97;3.60;;;;;;;18.89;81.87;94652.88;5033811;28;20777;-61
2022/08/05 03:16:21;;;;;;;4.35;3.42;;;;;;;18.84;82.30;94646.66;5033659;28;20212;-61
2022/08/05 03:18:47;;;;;;;4.20;3.80;;;;;;;18.87;83.84;94630.84;5033661;28;20596;-62
2022/08/05 03:21:13;;;;;;;6.32;4.03;;;;;;;18.88;83.65;94638.41;5015939;28;20289;-63
2022/08/05 03:23:41;;;;;;;4.70;3.70;;;;;;;18.86;83.35;94636.97;5033606;28;20225;-63
2022/08/05 03:26:07;;;;;;;4.30;3.20;;;;;;;18.94;83.00;94642.03;5033711;28;20718;-63
2022/08/05 03:28:34;;;;;;;3.85;3.53;;;;;;;18.81;81.77;94658.13;5015773;28;20194;-63
2022/08/05 03:31:00;;;;;;;3.85;3.35;;;;;;;19.03;82.00;94654.63;5033610;28;20221;-61
2022/08/05 03:33:27;;;;;;;4.45;3.85;;;;;;;19.13;80.83;94669.78;5033463;28;20182;-61
2022/08/05 03:35:57;;;;;;;5.55;3.30;;;;;;;19.02;80.79;94670.28;5033502;28;20263;-64
2022/08/05 03:38:24;;;;;;;4.32;3.90;;;;;;;18.95;81.14;94654.72;5033488;28;20193;-63
2022/08/05 03:40:49;;;;;;;3.58;3.28;;;;;;;19.09;81.56;94666.78;5033392;28;20687;-65
2022/08/05 03:43:16;;;;;;;5.40;3.60;;;;;;;19.13;80.12;94680.09;5033248;28;20186;-65
2022/08/05 03:45:42;;;;;;;6.18;3.75;;;;;;;18.99;80.83;94661.13;5015386;28;20214;-66
2022/08/05 03:48:07;;;;;;;5.03;3.78;;;;;;;18.98;81.28;94656.16;5033196;28;20178;-64
2022/08/05 03:50:49;;;;;;;4.40;3.75;;;;;;;18.92;81.64;94652.53;5033156;28;20257;-65
2022/08/05 03:53:22;;;;;;;4.93;3.78;;;;;;;18.95;82.70;94641.84;5033466;28;20186;-65
2022/08/05 03:56:02;;;;;;;5.78;3.70;;;;;;;19.04;84.05;94616.78;5033294;28;20282;-63
2022/08/05 03:58:32;;;;;;;3.78;3.47;;;;;;;19.23;82.22;94650.47;5032763;28;20228;-61
2022/08/05 04:01:00;;;;;;;7.78;3.80;;;;;;;19.32;81.21;94668.41;5032759;28;20708;-62
2022/08/05 04:03:27;;;;;;;4.35;3.53;;;;;;;19.23;81.92;94652.25;5014978;28;20209;-61
2022/08/05 04:05:54;;;;;;;6.15;3.92;;;;;;;19.24;81.47;94659.03;5015059;28;20210;-65
2022/08/05 04:08:20;;;;;;;6.82;3.92;;;;;;;19.16;82.23;94652.19;5039407;23;20229;-64
2022/08/05 04:10:46;;;;;;;6.90;3.97;;;;;;;19.03;82.74;94635.78;5052758;28;20239;-60
2022/08/05 04:13:11;;;;;;;4.22;3.83;;;;;;;18.83;84.26;94614.94;5053111;28;20635;-65
2022/08/05 04:15:37;;;;;;;9.13;3.83;;;;;;;18.79;85.41;94595.69;5052836;28;20210;-60
2022/08/05 04:18:05;;;;;;;7.32;4.43;;;;;;;18.66;85.25;94599.88;5052949;28;20216;-61
2022/08/05 04:20:31;;;;;;;5.60;4.28;;;;;;;18.61;86.08;94589.31;5052645;28;20220;-61
2022/08/05 04:22:56;;;;;;;5.10;3.80;;;;;;;18.47;85.85;94587.56;5052767;28;20182;-60
2022/08/05 04:25:28;;;;;;;5.53;3.50;;;;;;;18.41;87.01;94576.19;5034652;28;20185;-60
2022/08/05 04:27:54;;;;;;;6.32;4.00;;;;;;;18.37;87.08;94577.50;5034580;28;20270;-62
2022/08/05 04:30:20;;;;;;;3.75;3.42;;;;;;;18.52;86.95;94586.06;5052253;28;20296;-63
2022/08/05 04:32:45;;;;;;;5.20;4.13;;;;;;;18.57;87.10;94582.94;5034473;28;20198;-61
2022/08/05 04:35:11;;;;;;;4.35;3.75;;;;;;;18.47;87.16;94582.41;5052271;28;20182;-62
2022/08/05 04:37:37;;;;;;;5.20;3.75;;;;;;;18.46;87.60;94580.81;5052372;28;20190;-66
2022/08/05 04:40:02;;;;;;;6.20;3.90;;;;;;;18.38;87.76;94568.81;5034621;28;20188;-65
2022/08/05 04:42:28;;;;;;;4.93;4.20;;;;;;;18.44;88.28;94568.91;5052560;28;20296;-63
2022/08/05 04:44:53;;;;;;;4.50;4.03;;;;;;;18.51;88.54;94565.63;5052215;28;20203;-62
2022/08/05 04:47:19;;;;;;;5.10;4.03;;;;;;;18.50;88.68;94572.56;5034405;28;20212;-61
2022/08/05 04:49:44;;;;;;;5.32;3.90;;;;;;;18.64;87.84;94588.97;5051987;28;20189;-61
2022/08/05 04:52:09;;;;;;;4.85;3.75;;;;;;;18.73;87.64;94598.16;5052220;28;20222;-61
2022/08/05 04:54:35;;;;;;;4.13;3.83;;;;;;;18.79;87.13;94597.44;5052222;28;20180;-61
2022/08/05 04:57:00;;;;;;;4.43;3.80;;;;;;;18.92;86.20;94613.06;5052063;28;20217;-62
2022/08/05 04:59:25;;;;;;;5.80;4.40;;;;;;;18.94;85.68;94611.09;5034170;28;20181;-62
2022/08/05 05:01:51;;;;;;;5.88;4.50;;;;;;;18.90;86.76;94602.94;5052015;28;20355;-62
2022/08/05 05:04:17;;;;;;;4.53;4.13;;;;;;;19.07;84.92;94627.50;5051730;28;20181;-63
2022/08/05 05:06:42;;;;;;;5.15;4.32;;;;;;;19.07;85.00;94621.53;5051928;28;20210;-63
2022/08/05 05:09:10;;;;;;;5.38;4.57;;;;;;;19.03;85.94;94612.59;5051874;28;20635;-64
2022/08/05 05:11:35;;;;;;;4.95;4.28;;;;;;;19.03;87.54;94592.78;5050702;28;20217;-61
2022/08/05 05:14:02;;;;;;;6.05;4.18;;;;;;;19.16;86.55;94595.50;5051751;28;20181;-59
2022/08/05 05:16:28;;;;;;;5.03;4.40;;;;;;;19.11;88.25;94572.03;5051330;28;20297;-61
2022/08/05 05:18:53;;;;;;;4.53;4.13;;;;;;;19.34;86.07;94613.16;5051783;28;20315;-60
2022/08/05 05:21:19;;;;;;;4.22;3.50;;;;;;;19.40;86.32;94598.72;5051492;28;20214;-60
2022/08/05 05:23:44;;;;;;;5.25;4.07;;;;;;;19.42;86.42;94602.72;5051348;28;20211;-62
2022/08/05 05:26:09;;;;;;;4.90;4.38;;;;;;;19.60;85.37;94612.56;5051348;28;20205;-60
2022/08/05 05:28:35;;;;;;;5.95;4.68;;;;;;;19.66;85.39;94615.22;5051494;28;20289;-63
2022/08/05 05:31:00;;;;;;;5.22;4.65;;;;;;;19.60;87.80;94579.03;5049091;28;20234;-63
2022/08/05 05:33:26;;;;;;;7.40;4.47;;;;;;;19.76;87.36;94587.31;5049765;28;20190;-64
2022/08/05 05:35:52;;;;;;;5.45;4.40;;;;;;;20.13;87.29;94593.13;5051240;28;20201;-60
2022/08/05 05:38:18;;;;;;;7.65;4.88;;;;;;;20.26;84.08;94635.34;5033514;28;20304;-62
2022/08/05 05:40:43;;;;;;;5.20;4.63;;;;;;;20.38;83.59;94648.53;5051205;28;20209;-64
2022/08/05 05:43:08;;;;;;;5.25;4.70;;;;;;;20.33;83.45;94641.34;5033359;28;20225;-63
2022/08/05 05:45:34;;;;;;;4.97;4.45;;;;;;;20.38;83.85;94638.22;5051028;28;20220;-63
2022/08/05 05:47:59;;;;;;;4.90;4.50;;;;;;;20.43;83.05;94656.50;5051554;28;20685;-61
2022/08/05 05:50:25;;;;;;;11.10;4.97;;;;;;;20.23;85.33;94612.50;5051290;28;20227;-61
2022/08/05 05:52:51;;;;;;;5.78;4.80;;;;;;;20.48;83.60;94641.25;5050737;28;20186;-64
2022/08/05 05:55:17;;;;;;;11.32;4.70;;;;;;;20.51;82.07;94664.09;5051356;28;20236;-62
2022/08/05 05:57:44;;;;;;;7.75;4.85;;;;;;;20.48;81.27;94680.00;5051292;28;20196;-61
2022/08/05 06:00:18;;;;;;;5.18;4.68;;;;;;;20.46;81.44;94676.81;5033251;28;20200;-65
2022/08/05 06:02:46;;;;;;;4.80;4.40;;;;;;;20.43;82.58;94652.16;5033142;28;20243;-64
2022/08/05 06:05:13;;;;;;;5.32;4.90;;;;;;;20.52;82.15;94657.97;5050905;28;20185;-64
2022/08/05 06:07:40;;;;;;;6.10;4.80;;;;;;;20.62;82.42;94661.00;5051357;28;20575;-64
2022/08/05 06:10:07;;;;;;;7.15;4.70;;;;;;;20.85;81.85;94675.22;5050881;28;20210;-63
2022/08/05 06:12:34;;;;;;;9.35;4.85;;;;;;;20.86;82.06;94663.91;5051001;28;20193;-64
2022/08/05 06:15:01;;;;;;;5.65;4.90;;;;;;;20.99;82.34;94660.56;5050920;28;20201;-64
2022/08/05 06:17:27;;;;;;;13.57;5.70;;;;;;;20.80;84.57;94622.53;5032951;28;20254;-65
2022/08/05 06:19:52;;;;;;;7.10;5.53;;;;;;;21.12;82.70;94659.84;5050740;28;20185;-63
2022/08/05 06:22:29;;;;;;;5.88;4.97;;;;;;;21.20;83.43;94650.13;5032544;28;20596;-64
2022/08/05 06:24:55;;;;;;;7.18;5.25;;;;;;;21.28;83.13;94652.56;5051106;28;20220;-63
2022/08/05 06:27:21;;;;;;;5.55;4.90;;;;;;;21.36;82.06;94680.81;5050928;28;20226;-65
2022/08/05 06:29:46;;;;;;;5.10;4.40;;;;;;;21.44;80.99;94687.59;5050728;28;20240;-64
2022/08/05 06:32:13;;;;;;;12.55;7.00;;;;;;;21.66;80.29;94705.38;5050843;28;20206;-64
2022/08/05 06:34:38;;;;;;;8.20;4.93;;;;;;;21.69;80.41;94699.03;5050688;28;20185;-63
2022/08/05 06:37:04;;;;;;;9.43;4.82;;;;;;;21.96;78.02;94736.91;5050847;28;20213;-61
2022/08/05 06:39:29;;;;;;;10.63;5.10;;;;;;;22.09;76.36;94754.25;5050739;28;20189;-63
2022/08/05 06:41:56;;;;;;;7.85;5.03;;;;;;;22.13;76.79;94739.94;5032603;28;20232;-64
2022/08/05 06:44:22;;;;;;;8.13;5.35;;;;;;;22.17;76.98;94738.53;5050619;28;20651;-63
2022/08/05 06:46:47;;;;;;;6.90;5.15;;;;;;;22.15;77.47;94717.22;5050386;28;20220;-64
2022/08/05 06:49:12;;;;;;;8.88;5.20;;;;;;;22.00;77.98;94719.22;5050658;28;20279;-63
2022/08/05 06:51:38;;;;;;;8.02;5.38;;;;;;;22.12;77.35;94722.81;5050384;28;20217;-64
2022/08/05 06:54:03;;;;;;;10.27;5.88;;;;;;;22.40;77.04;94731.94;5050452;28;20231;-63
2022/08/05 06:56:30;;;;;;;9.57;5.13;;;;;;;22.59;75.28;94763.28;5050370;28;20201;-64
2022/08/05 06:58:56;;;;;;;8.70;5.40;;;;;;;22.51;76.25;94735.75;5050475;28;20197;-64
2022/08/05 07:01:22;;;;;;;9.40;5.47;;;;;;;22.84;75.59;94749.50;5016341;28;20366;-63
2022/08/05 07:03:48;;;;;;;8.18;6.00;;;;;;;22.77;74.02;94773.81;5050296;28;20277;-64
2022/08/05 07:06:13;;;;;;;13.07;5.72;;;;;;;22.82;72.79;94793.00;5032332;28;20205;-64
2022/08/05 07:08:38;;;;;;;7.72;5.72;;;;;;;22.97;72.45;94793.56;5032444;28;20254;-61
2022/08/05 07:11:04;;;;;;;7.95;5.05;;;;;;;23.09;72.59;94783.34;5050129;28;20209;-65
2022/08/05 07:19:03;;;;;;;12.98;5.68;;;;;;;23.36;71.05;94816.06;5050012;28;20208;-65
2022/08/05 07:21:29;;;;;;;21.80;13.40;;;;;;;23.42;70.05;94824.81;5032224;28;20221;-63
2022/08/05 07:23:55;;;;;;;9.63;5.28;;;;;;;23.59;68.43;94851.94;5032052;28;20186;-64
2022/08/05 07:26:21;;;;;;;11.27;5.38;;;;;;;23.77;67.54;94854.66;5049929;28;20209;-64
2022/08/05 07:28:46;;;;;;;7.38;5.90;;;;;;;23.78;68.11;94830.28;5049938;28;20174;-64
2022/08/05 07:31:11;;;;;;;9.07;5.50;;;;;;;24.00;66.44;94849.75;5049677;28;20236;-60
2022/08/05 07:33:37;;;;;;;8.40;4.80;;;;;;;24.02;62.43;94832.97;5050773;28;20319;-64
2022/08/05 07:36:02;;;;;;;8.07;4.60;;;;;;;24.01;63.51;94815.81;5053254;28;20595;-65
2022/08/05 07:38:28;;;;;;;9.02;6.53;;;;;;;24.03;64.05;94785.25;5035367;28;20678;-64
2022/08/05 07:40:53;;;;;;;6.78;4.78;;;;;;;24.21;64.83;94779.34;5035332;28;20790;-64
2022/08/05 07:43:19;;;;;;;8.93;5.10;;;;;;;24.31;63.50;94797.84;5035284;28;20186;-64
2022/08/05 07:45:44;;;;;;;7.20;5.53;;;;;;;24.52;63.54;94792.31;5018697;28;20223;-64
2022/08/05 07:48:10;;;;;;;7.00;5.22;;;;;;;24.58;64.87;94760.28;5053316;28;20185;-63
2022/08/05 07:50:35;;;;;;;8.40;5.38;;;;;;;24.80;64.46;94773.72;5052823;28;20314;-63
2022/08/05 07:53:01;;;;;;;9.65;4.90;;;;;;;25.01;61.95;94809.72;5035163;28;20190;-61
2022/08/05 07:55:27;;;;;;;6.47;5.10;;;;;;;24.97;62.06;94800.75;5053122;28;20210;-63
2022/08/05 07:57:52;;;;;;;7.75;5.22;;;;;;;24.75;60.33;94828.97;5053804;28;20181;-64
2022/08/05 08:00:18;;;;;;;6.35;4.65;;;;;;;24.83;61.55;94797.47;5052935;28;20291;-64
2022/08/05 08:02:43;;;;;;;6.80;5.05;;;;;;;25.13;59.88;94825.44;5053298;28;20190;-65
2022/08/05 08:05:09;;;;;;;11.43;5.35;;;;;;;25.28;60.78;94805.06;5053053;28;20188;-65
2022/08/05 08:07:35;;;;;;;9.63;4.97;;;;;;;25.40;61.21;94800.72;5053290;28;20290;-66
2022/08/05 08:10:02;;;;;;;9.88;5.25;;;;;;;25.56;61.73;94789.75;5053183;28;20198;-60
2022/08/05 08:12:27;;;;;;;7.82;5.25;;;;;;;25.89;60.99;94794.56;5053167;28;20645;-65
2022/08/05 08:14:53;;;;;;;10.55;5.38;;;;;;;26.20;58.38;94839.47;5053000;28;20247;-65
2022/08/05 08:17:18;;;;;;;7.82;5.03;;;;;;;26.37;58.35;94834.44;5052615;28;20217;-65
2022/08/05 08:19:44;;;;;;;10.23;5.38;;;;;;;26.53;60.09;94790.25;5052852;28;20182;-66
2022/08/05 08:22:11;;;;;;;14.57;6.10;;;;;;;26.58;56.72;94837.31;5052909;28;20209;-66
2022/08/05 08:24:37;;;;;;;7.35;5.03;;;;;;;26.58;59.70;94789.59;5018399;28;20251;-63
2022/08/05 08:27:04;;;;;;;7.50;4.97;;;;;;;26.31;55.57;94840.53;5052814;28;20213;-63
2022/08/05 08:29:30;;;;;;;7.45;4.10;;;;;;;26.36;56.37;94817.22;5052667;28;20182;-63
2022/08/05 08:31:56;;;;;;;5.50;4.88;;;;;;;26.50;54.45;94837.66;5034621;28;20691;-64
2022/08/05 08:34:23;;;;;;;7.60;4.35;;;;;;;26.36;56.14;94825.81;5052732;28;20185;-62
2022/08/05 08:36:49;;;;;;;8.00;5.78;;;;;;;26.39;54.87;94829.78;5052660;28;20209;-66
2022/08/05 08:39:18;;;;;;;9.10;4.95;;;;;;;26.45;54.17;94837.53;5052501;28;20236;-65
2022/08/05 08:41:47;;;;;;;8.98;4.70;;;;;;;26.58;52.39;94862.63;5052287;28;20225;-65
2022/08/05 08:44:21;;;;;;;5.65;4.20;;;;;;;26.66;51.03;94875.34;5052410;28;20174;-65
2022/08/05 08:46:55;;;;;;;8.13;4.30;;;;;;;26.76;51.80;94844.31;5034385;28;20221;-64
2022/08/05 08:49:23;;;;;;;7.35;4.70;;;;;;;27.13;52.08;94834.50;5052182;28;20196;-64
2022/08/05 08:51:57;;;;;;;10.55;4.53;;;;;;;27.26;55.19;94782.03;5052119;28;20221;-65
2022/08/05 08:54:24;;;;;;;6.95;4.50;;;;;;;27.39;53.16;94828.84;5052208;28;20189;-66
2022/08/05 08:56:50;;;;;;;6.03;5.22;;;;;;;27.59;53.98;94797.91;5052199;28;20241;-64
2022/08/05 08:59:19;;;;;;;7.72;4.00;;;;;;;27.64;52.45;94826.72;5052096;28;20202;-65
2022/08/05 09:01:45;;;;;;;6.50;4.20;;;;;;;27.59;49.52;94875.50;5052157;28;20232;-61
2022/08/05 09:04:12;;;;;;;7.70;4.47;;;;;;;27.90;50.58;94847.13;5052103;28;20189;-61
2022/08/05 09:06:37;;;;;;;8.18;4.03;;;;;;;28.22;52.81;94805.66;5034122;28;20292;-63
2022/08/05 09:09:03;;;;;;;4.65;4.18;;;;;;;28.33;51.20;94825.75;5051950;28;20216;-61
2022/08/05 09:11:31;;;;;;;8.70;4.68;;;;;;;28.50;50.73;94831.00;5051859;28;20231;-61
2022/08/05 09:13:58;;;;;;;7.20;4.10;;;;;;;28.56;47.83;94877.19;5052029;28;20181;-64
2022/08/05 09:16:24;;;;;;;9.45;3.28;;;;;;;28.62;45.15;94907.66;5051783;28;20213;-64
2022/08/05 09:18:49;;;;;;;5.72;3.28;;;;;;;29.00;45.31;94885.03;5051946;28;20682;-66
2022/08/05 09:21:15;;;;;;;2.65;2.45;;;;;;;29.16;41.47;94914.09;5051818;28;20259;-63
2022/08/05 09:23:44;;;;;;;4.22;3.30;;;;;;;29.25;40.96;94897.72;5034042;28;20232;-65
2022/08/05 09:26:12;;;;;;;6.45;3.50;;;;;;;29.20;42.09;94853.13;5033644;28;20215;-64
2022/08/05 09:28:39;;;;;;;3.75;3.17;;;;;;;29.51;43.47;94815.06;5051461;28;20319;-62
2022/08/05 09:31:13;;;;;;;4.70;2.70;;;;;;;29.68;41.32;94858.53;5051481;28;20228;-63
2022/08/05 09:33:50;;;;;;;3.80;2.88;;;;;;;29.95;37.85;94886.69;5051656;28;20197;-61
2022/08/05 09:36:16;;;;;;;3.00;2.70;;;;;;;29.95;38.01;94761.59;5051674;28;20197;-60
2022/08/05 09:38:58;;;;;;;2.58;2.38;;;;;;;29.81;37.64;94737.59;5051743;28;20194;-65
2022/08/05 09:41:24;;;;;;;4.60;2.72;;;;;;;29.90;39.40;94703.84;5033761;28;20702;-65
2022/08/05 09:43:50;;;;;;;4.93;3.33;;;;;;;30.06;38.56;94705.56;5051462;28;20193;-66
2022/08/05 09:46:30;;;;;;;6.10;2.55;;;;;;;30.13;38.44;94697.50;5051224;28;20316;-67
2022/08/05 09:49:03;;;;;;;3.90;2.72;;;;;;;30.53;37.14;94700.47;5051443;28;20193;-64
2022/08/05 09:51:37;;;;;;;5.85;3.10;;;;;;;30.70;38.57;94674.88;5051232;28;20304;-65
2022/08/05 09:54:07;;;;;;;3.10;2.55;;;;;;;30.96;37.80;94689.75;5051462;28;20272;-64
2022/08/05 09:56:34;;;;;;;4.95;3.75;;;;;;;31.19;37.38;94694.59;5050540;28;20304;-64
2022/08/05 09:59:04;;;;;;;3.58;2.83;;;;;;;31.39;38.96;94671.03;5051099;28;20708;-64
2022/08/05 10:01:32;;;;;;;3.35;3.05;;;;;;;31.60;36.91;94692.94;5051165;28;20228;-65
2022/08/05 10:04:04;;;;;;;2.67;2.35;;;;;;;31.54;36.05;94699.22;5033433;28;20238;-63
2022/08/05 10:06:30;;;;;;;4.18;3.20;;;;;;;31.48;35.33;94702.09;5033009;28;20244;-62
2022/08/05 10:09:13;;;;;;;3.22;2.97;;;;;;;30.87;34.33;94687.84;5051277;28;20185;-62
2022/08/05 10:11:39;;;;;;;6.03;3.25;;;;;;;31.00;34.44;94690.84;5051282;28;20296;-62
2022/08/05 10:14:25;;;;;;;4.15;3.30;;;;;;;31.54;36.39;94659.78;5051012;28;20213;-61
2022/08/05 10:16:54;;;;;;;4.22;3.10;;;;;;;31.53;36.17;94667.94;5050884;28;20694;-60
2022/08/05 10:19:25;;;;;;;4.15;3.20;;;;;;;32.06;35.93;94665.69;5051169;28;20196;-64
2022/08/05 10:21:50;;;;;;;3.65;3.35;;;;;;;32.48;32.77;94688.38;5051220;28;20202;-65
2022/08/05 10:24:18;;;;;;;4.20;3.00;;;;;;;32.78;34.14;94662.78;5032899;28;20200;-65
2022/08/05 10:26:46;;;;;;;4.95;3.42;;;;;;;32.97;34.48;94661.16;5032840;28;20210;-65
2022/08/05 10:29:11;;;;;;;3.38;3.08;;;;;;;33.18;33.47;94663.72;5032855;28;20585;-64
2022/08/05 10:31:38;;;;;;;3.97;3.17;;;;;;;33.21;33.09;94657.94;5050727;28;20217;-65
2022/08/05 10:34:06;;;;;;;4.03;2.95;;;;;;;32.16;33.34;94660.44;5051158;28;20193;-63
2022/08/05 10:36:31;;;;;;;4.88;3.28;;;;;;;32.04;33.79;94649.38;5050783;28;20324;-64
2022/08/05 10:39:09;;;;;;;7.45;3.10;;;;;;;32.24;34.61;94630.19;5050826;28;20268;-65
2022/08/05 10:41:45;;;;;;;5.82;3.20;;;;;;;32.13;34.71;94639.91;5050800;28;20216;-66
2022/08/05 10:44:14;;;;;;;5.57;3.92;;;;;;;32.86;35.35;94614.00;5050870;28;20196;-62
2022/08/05 10:46:51;;;;;;;3.88;2.88;;;;;;;33.21;35.49;94611.25;5050648;28;20214;-62
2022/08/05 10:49:17;;;;;;;4.28;3.90;;;;;;;32.91;33.84;94624.50;5050635;28;20189;-63
2022/08/05 10:51:56;;;;;;;5.05;3.65;;;;;;;32.90;34.91;94610.56;5050428;28;20607;-64
2022/08/05 10:54:23;;;;;;;4.10;3.67;;;;;;;33.38;35.99;94600.34;5056516;22;20190;-64
2022/08/05 10:56:56;;;;;;;3.47;3.17;;;;;;;33.32;32.10;94651.53;5050170;28;20706;-65
2022/08/05 10:59:27;;;;;;;5.18;3.55;;;;;;;33.43;33.44;94611.66;5050736;28;20204;-61
2022/08/05 11:02:07;;;;;;;9.35;3.55;;;;;;;33.89;32.75;94617.47;5050485;28;20209;-62
2022/08/05 11:04:42;;;;;;;5.88;3.40;;;;;;;34.28;31.85;94628.78;5056622;22;20743;-62
2022/08/05 11:07:10;;;;;;;7.25;3.15;;;;;;;34.27;32.10;94619.31;5050288;28;20204;-65
2022/08/05 11:12:23;;;;;;;5.38;2.92;;;;;;;34.52;31.49;94616.44;5059465;22;20233;-62
2022/08/05 11:15:04;;;;;;;4.18;3.22;;;;;;;34.00;31.13;94610.31;5053961;28;20189;-61
2022/08/05 11:17:33;;;;;;;4.15;3.50;;;;;;;34.83;32.01;94616.16;5053794;28;20188;-62
2022/08/05 11:19:59;;;;;;;5.30;3.63;;;;;;;35.04;31.40;94601.63;5035824;28;20615;-62
2022/08/05 11:22:42;;;;;;;9.75;4.35;;;;;;;35.18;31.12;94607.81;5053614;28;20205;-66
2022/08/05 11:27:42;;;;;;;6.10;3.83;;;;;;;35.13;31.06;94602.59;5059384;22;20233;-65
2022/08/05 11:30:07;;;;;;;4.63;3.35;;;;;;;35.27;30.66;94606.13;5053297;28;20582;-66
2022/08/05 11:32:33;;;;;;;19.58;5.22;;;;;;;35.07;31.15;94583.34;5053492;28;20182;-66
2022/08/05 11:34:59;;;;;;;4.80;3.30;;;;;;;34.98;30.47;94594.84;5035812;28;20182;-65
2022/08/05 11:39:58;;;;;;;6.93;3.47;;;;;;;35.35;29.91;94589.63;5059144;22;20628;-66
2022/08/05 11:42:25;;;;;;;5.53;3.15;;;;;;;35.34;29.04;94602.03;5053294;28;20213;-61
2022/08/05 11:44:52;;;;;;;4.40;2.97;;;;;;;35.26;28.77;94588.66;5035518;28;20644;-61
2022/08/05 11:47:23;;;;;;;5.45;3.53;;;;;;;35.43;29.35;94583.69;5053323;28;20379;-62
2022/08/05 11:49:55;;;;;;;3.63;3.40;;;;;;;35.50;30.29;94567.47;5053357;28;20564;-61